sensor_id;sensor_type;location;lat;lon;timestamp;pressure;altitude;pressure_sealevel;temperature;humidity
37202;BME280;37799;52.390;6.136;2023-06-14T00:00:10;101537.63;;;16.36;94.28
37202;BME280;37799;52.390;6.136;2023-06-14T00:02:38;101536.78;;;16.36;94.53
37202;BME280;37799;52.390;6.136;2023-06-14T00:05:04;101535.94;;;16.35;94.28
37202;BME280;37799;52.390;6.136;2023-06-14T00:07:37;101543.44;;;16.21;96.52
37202;BME280;37799;52.390;6.136;2023-06-14T00:10:03;101538.47;;;16.15;95.22
37202;BME280;37799;52.390;6.136;2023-06-14T00:12:30;101535.50;;;16.01;97.64
37202;BME280;37799;52.390;6.136;2023-06-14T00:14:55;101533.91;;;16.20;96.95
37202;BME280;37799;52.390;6.136;2023-06-14T00:17:20;101540.72;;;16.01;98.49
37202;BME280;37799;52.390;6.136;2023-06-14T00:19:46;101535.00;;;15.91;99.20
37202;BME280;37799;52.390;6.136;2023-06-14T00:22:12;101534.63;;;15.78;100.00
37202;BME280;37799;52.390;6.136;2023-06-14T00:24:37;101536.53;;;15.73;100.00
37202;BME280;37799;52.390;6.136;2023-06-14T00:27:03;101539.44;;;15.89;100.00
37202;BME280;37799;52.390;6.136;2023-06-14T00:29:28;101548.31;;;15.60;100.00
37202;BME280;37799;52.390;6.136;2023-06-14T00:31:53;101548.72;;;15.48;100.00
37202;BME280;37799;52.390;6.136;2023-06-14T00:34:19;101542.91;;;15.40;100.00
37202;BME280;37799;52.390;6.136;2023-06-14T00:36:44;101555.25;;;15.34;100.00
37202;BME280;37799;52.390;6.136;2023-06-14T00:39:09;101550.25;;;15.28;100.00
37202;BME280;37799;52.390;6.136;2023-06-14T00:41:35;101542.84;;;15.16;100.00
37202;BME280;37799;52.390;6.136;2023-06-14T00:44:00;101546.56;;;15.09;100.00
37202;BME280;37799;52.390;6.136;2023-06-14T00:46:25;101542.56;;;14.99;100.00
37202;BME280;37799;52.390;6.136;2023-06-14T00:48:51;101547.13;;;14.92;100.00
37202;BME280;37799;52.390;6.136;2023-06-14T00:51:16;101548.25;;;14.84;100.00
37202;BME280;37799;52.390;6.136;2023-06-14T00:53:42;101541.34;;;14.83;100.00
37202;BME280;37799;52.390;6.136;2023-06-14T00:56:12;101547.78;;;14.72;100.00
37202;BME280;37799;52.390;6.136;2023-06-14T00:58:38;101541.84;;;14.67;100.00
37202;BME280;37799;52.390;6.136;2023-06-14T01:01:04;101548.06;;;14.63;100.00
37202;BME280;37799;52.390;6.136;2023-06-14T01:03:29;101548.84;;;14.65;100.00
37202;BME280;37799;52.390;6.136;2023-06-14T01:11:16;101540.41;;;14.57;100.00
37202;BME280;37799;52.390;6.136;2023-06-14T01:13:45;101540.78;;;14.45;100.00
37202;BME280;37799;52.390;6.136;2023-06-14T01:16:11;101540.97;;;14.39;100.00
37202;BME280;37799;52.390;6.136;2023-06-14T01:18:37;101544.41;;;14.39;100.00
37202;BME280;37799;52.390;6.136;2023-06-14T01:21:02;101543.66;;;14.36;100.00
37202;BME280;37799;52.390;6.136;2023-06-14T01:23:31;101543.66;;;14.36;100.00
37202;BME280;37799;52.390;6.136;2023-06-14T01:26:00;101541.31;;;14.27;100.00
37202;BME280;37799;52.390;6.136;2023-06-14T01:28:28;101540.69;;;14.18;100.00
37202;BME280;37799;52.390;6.136;2023-06-14T01:30:59;101541.59;;;14.17;100.00
37202;BME280;37799;52.390;6.136;2023-06-14T01:33:27;101543.28;;;14.18;100.00
37202;BME280;37799;52.390;6.136;2023-06-14T01:35:54;101542.59;;;14.13;100.00
37202;BME280;37799;52.390;6.136;2023-06-14T01:38:25;101548.66;;;14.14;100.00
37202;BME280;37799;52.390;6.136;2023-06-14T01:40:53;101545.44;;;14.04;100.00
37202;BME280;37799;52.390;6.136;2023-06-14T01:43:20;101544.66;;;14.02;100.00
37202;BME280;37799;52.390;6.136;2023-06-14T01:45:47;101549.06;;;14.00;100.00
37202;BME280;37799;52.390;6.136;2023-06-14T01:48:14;101548.38;;;13.94;100.00
37202;BME280;37799;52.390;6.136;2023-06-14T01:50:41;101549.25;;;13.93;100.00
37202;BME280;37799;52.390;6.136;2023-06-14T01:53:10;101548.69;;;13.83;100.00
37202;BME280;37799;52.390;6.136;2023-06-14T01:55:35;101543.63;;;13.77;100.00
37202;BME280;37799;52.390;6.136;2023-06-14T01:58:05;101552.25;;;13.79;100.00
37202;BME280;37799;52.390;6.136;2023-06-14T02:00:31;101549.59;;;13.82;100.00
37202;BME280;37799;52.390;6.136;2023-06-14T02:02:56;101547.03;;;13.79;100.00
37202;BME280;37799;52.390;6.136;2023-06-14T02:05:22;101560.25;;;13.73;100.00
37202;BME280;37799;52.390;6.136;2023-06-14T02:07:48;101554.22;;;13.71;100.00
37202;BME280;37799;52.390;6.136;2023-06-14T02:10:13;101553.44;;;13.69;100.00
37202;BME280;37799;52.390;6.136;2023-06-14T02:12:40;101555.13;;;13.70;100.00
37202;BME280;37799;52.390;6.136;2023-06-14T02:15:06;101549.97;;;13.67;100.00
37202;BME280;37799;52.390;6.136;2023-06-14T02:17:32;101552.81;;;13.59;100.00
37202;BME280;37799;52.390;6.136;2023-06-14T02:19:57;101553.84;;;13.52;100.00
37202;BME280;37799;52.390;6.136;2023-06-14T02:22:23;101551.34;;;13.49;100.00
37202;BME280;37799;52.390;6.136;2023-06-14T02:24:48;101552.34;;;13.45;100.00
37202;BME280;37799;52.390;6.136;2023-06-14T02:27:14;101555.88;;;13.41;100.00
37202;BME280;37799;52.390;6.136;2023-06-14T02:29:39;101552.50;;;13.37;100.00
37202;BME280;37799;52.390;6.136;2023-06-14T02:32:05;101556.06;;;13.35;100.00
37202;BME280;37799;52.390;6.136;2023-06-14T02:34:32;101559.69;;;13.29;100.00
37202;BME280;37799;52.390;6.136;2023-06-14T02:37:00;101549.28;;;13.29;100.00
37202;BME280;37799;52.390;6.136;2023-06-14T02:39:25;101553.84;;;13.19;100.00
37202;BME280;37799;52.390;6.136;2023-06-14T02:41:50;101549.59;;;13.15;100.00
37202;BME280;37799;52.390;6.136;2023-06-14T02:44:19;101549.56;;;13.17;100.00
37202;BME280;37799;52.390;6.136;2023-06-14T02:46:44;101556.47;;;13.18;100.00
37202;BME280;37799;52.390;6.136;2023-06-14T02:49:11;101550.28;;;13.23;100.00
37202;BME280;37799;52.390;6.136;2023-06-14T02:51:36;101554.72;;;13.20;100.00
37202;BME280;37799;52.390;6.136;2023-06-14T02:54:01;101563.69;;;13.07;100.00
37202;BME280;37799;52.390;6.136;2023-06-14T02:56:27;101561.88;;;13.09;100.00
37202;BME280;37799;52.390;6.136;2023-06-14T02:58:53;101560.25;;;13.05;100.00
37202;BME280;37799;52.390;6.136;2023-06-14T03:01:18;101558.84;;;12.91;100.00
37202;BME280;37799;52.390;6.136;2023-06-14T03:03:45;101567.47;;;12.93;100.00
37202;BME280;37799;52.390;6.136;2023-06-14T03:06:11;101569.41;;;12.84;100.00
37202;BME280;37799;52.390;6.136;2023-06-14T03:08:39;101573.94;;;12.76;100.00
37202;BME280;37799;52.390;6.136;2023-06-14T03:11:07;101567.75;;;12.81;100.00
37202;BME280;37799;52.390;6.136;2023-06-14T03:13:33;101580.00;;;12.76;100.00
37202;BME280;37799;52.390;6.136;2023-06-14T03:15:58;101575.69;;;12.75;100.00
37202;BME280;37799;52.390;6.136;2023-06-14T03:18:24;101584.28;;;12.79;100.00
37202;BME280;37799;52.390;6.136;2023-06-14T03:20:49;101583.34;;;12.81;100.00
37202;BME280;37799;52.390;6.136;2023-06-14T03:23:16;101581.75;;;12.74;100.00
37202;BME280;37799;52.390;6.136;2023-06-14T03:25:41;101585.13;;;12.79;100.00
37202;BME280;37799;52.390;6.136;2023-06-14T03:28:07;101587.81;;;12.75;100.00
37202;BME280;37799;52.390;6.136;2023-06-14T03:30:36;101586.19;;;12.70;100.00
37202;BME280;37799;52.390;6.136;2023-06-14T03:33:01;101593.94;;;12.72;100.00
37202;BME280;37799;52.390;6.136;2023-06-14T03:35:28;101594.03;;;12.69;100.00
37202;BME280;37799;52.390;6.136;2023-06-14T03:37:54;101595.66;;;12.73;100.00
37202;BME280;37799;52.390;6.136;2023-06-14T03:40:20;101596.53;;;12.72;100.00
37202;BME280;37799;52.390;6.136;2023-06-14T03:42:46;101600.84;;;12.73;100.00
37202;BME280;37799;52.390;6.136;2023-06-14T03:45:12;101600.72;;;12.79;100.00
37202;BME280;37799;52.390;6.136;2023-06-14T03:47:37;101605.88;;;12.81;100.00
37202;BME280;37799;52.390;6.136;2023-06-14T03:50:03;101599.84;;;12.80;100.00
37202;BME280;37799;52.390;6.136;2023-06-14T03:52:29;101601.41;;;12.86;100.00
37202;BME280;37799;52.390;6.136;2023-06-14T03:54:54;101609.22;;;12.86;100.00
37202;BME280;37799;52.390;6.136;2023-06-14T03:57:21;101617.50;;;13.02;100.00
37202;BME280;37799;52.390;6.136;2023-06-14T03:59:46;101607.88;;;13.07;100.00
37202;BME280;37799;52.390;6.136;2023-06-14T04:02:12;101623.44;;;13.08;100.00
37202;BME280;37799;52.390;6.136;2023-06-14T04:04:40;101618.16;;;13.11;100.00
37202;BME280;37799;52.390;6.136;2023-06-14T04:07:12;101619.00;;;13.12;100.00
37202;BME280;37799;52.390;6.136;2023-06-14T04:09:39;101619.56;;;13.26;100.00
37202;BME280;37799;52.390;6.136;2023-06-14T04:12:05;101623.66;;;13.36;100.00
37202;BME280;37799;52.390;6.136;2023-06-14T04:14:31;101627.00;;;13.41;100.00
37202;BME280;37799;52.390;6.136;2023-06-14T04:16:58;101632.22;;;13.41;100.00
37202;BME280;37799;52.390;6.136;2023-06-14T04:19:23;101631.22;;;13.45;100.00
37202;BME280;37799;52.390;6.136;2023-06-14T04:21:49;101632.78;;;13.52;100.00
37202;BME280;37799;52.390;6.136;2023-06-14T04:24:14;101639.59;;;13.58;100.00
37202;BME280;37799;52.390;6.136;2023-06-14T04:26:41;101637.63;;;13.66;100.00
37202;BME280;37799;52.390;6.136;2023-06-14T04:29:09;101641.03;;;13.70;100.00
37202;BME280;37799;52.390;6.136;2023-06-14T04:31:34;101640.78;;;13.77;100.00
37202;BME280;37799;52.390;6.136;2023-06-14T04:34:02;101647.47;;;13.87;100.00
37202;BME280;37799;52.390;6.136;2023-06-14T04:36:34;101652.31;;;14.01;100.00
37202;BME280;37799;52.390;6.136;2023-06-14T04:39:00;101652.13;;;14.09;100.00
37202;BME280;37799;52.390;6.136;2023-06-14T04:41:28;101656.38;;;14.11;100.00
37202;BME280;37799;52.390;6.136;2023-06-14T04:43:57;101657.75;;;14.25;100.00
37202;BME280;37799;52.390;6.136;2023-06-14T04:46:23;101664.41;;;14.35;100.00
37202;BME280;37799;52.390;6.136;2023-06-14T04:48:49;101662.28;;;14.49;100.00
37202;BME280;37799;52.390;6.136;2023-06-14T04:51:15;101671.50;;;14.61;100.00
37202;BME280;37799;52.390;6.136;2023-06-14T04:53:41;101671.50;;;14.61;100.00
37202;BME280;37799;52.390;6.136;2023-06-14T04:56:07;101668.28;;;14.81;100.00
37202;BME280;37799;52.390;6.136;2023-06-14T04:58:32;101676.75;;;14.89;100.00
37202;BME280;37799;52.390;6.136;2023-06-14T05:00:57;101678.34;;;14.93;100.00
37202;BME280;37799;52.390;6.136;2023-06-14T05:03:24;101679.97;;;14.97;100.00
37202;BME280;37799;52.390;6.136;2023-06-14T05:05:50;101683.09;;;15.08;100.00
37202;BME280;37799;52.390;6.136;2023-06-14T05:08:16;101682.06;;;15.14;100.00
37202;BME280;37799;52.390;6.136;2023-06-14T05:10:41;101691.16;;;15.28;100.00
37202;BME280;37799;52.390;6.136;2023-06-14T05:13:07;101693.38;;;15.41;100.00
37202;BME280;37799;52.390;6.136;2023-06-14T05:15:32;101690.47;;;15.50;100.00
37202;BME280;37799;52.390;6.136;2023-06-14T05:17:59;101683.22;;;15.59;100.00
37202;BME280;37799;52.390;6.136;2023-06-14T05:20:24;101686.50;;;15.91;100.00
37202;BME280;37799;52.390;6.136;2023-06-14T05:22:52;101697.69;;;15.95;100.00
37202;BME280;37799;52.390;6.136;2023-06-14T05:25:21;101689.69;;;15.99;100.00
37202;BME280;37799;52.390;6.136;2023-06-14T05:27:47;101692.66;;;16.13;100.00
37202;BME280;37799;52.390;6.136;2023-06-14T05:30:14;101693.03;;;16.51;100.00
37202;BME280;37799;52.390;6.136;2023-06-14T05:32:40;101694.28;;;16.64;100.00
37202;BME280;37799;52.390;6.136;2023-06-14T05:35:06;101692.19;;;17.41;100.00
37202;BME280;37799;52.390;6.136;2023-06-14T05:37:32;101698.38;;;18.21;94.34
37202;BME280;37799;52.390;6.136;2023-06-14T05:39:57;101690.00;;;19.28;83.43
37202;BME280;37799;52.390;6.136;2023-06-14T05:42:22;101703.69;;;20.21;78.21
37202;BME280;37799;52.390;6.136;2023-06-14T05:44:48;101697.72;;;20.83;70.88
37202;BME280;37799;52.390;6.136;2023-06-14T05:47:13;101702.13;;;20.99;65.99
37202;BME280;37799;52.390;6.136;2023-06-14T05:49:39;101713.88;;;21.85;64.83
37202;BME280;37799;52.390;6.136;2023-06-14T05:52:04;101713.56;;;22.48;60.71
37202;BME280;37799;52.390;6.136;2023-06-14T05:54:30;101723.72;;;22.97;56.44
37202;BME280;37799;52.390;6.136;2023-06-14T05:56:55;101725.38;;;23.12;55.45
37202;BME280;37799;52.390;6.136;2023-06-14T05:59:21;101731.94;;;23.33;53.14
37202;BME280;37799;52.390;6.136;2023-06-14T06:01:46;101726.69;;;23.73;51.65
37202;BME280;37799;52.390;6.136;2023-06-14T06:04:11;101734.31;;;23.90;51.12
37202;BME280;37799;52.390;6.136;2023-06-14T06:06:37;101736.47;;;24.23;48.84
37202;BME280;37799;52.390;6.136;2023-06-14T06:09:02;101741.31;;;24.04;48.35
37202;BME280;37799;52.390;6.136;2023-06-14T06:11:27;101740.34;;;23.52;48.85
37202;BME280;37799;52.390;6.136;2023-06-14T06:13:53;101740.53;;;23.76;50.61
37202;BME280;37799;52.390;6.136;2023-06-14T06:16:19;101741.19;;;24.05;47.99
37202;BME280;37799;52.390;6.136;2023-06-14T06:18:44;101736.44;;;23.98;47.92
37202;BME280;37799;52.390;6.136;2023-06-14T06:21:09;101740.22;;;23.94;48.97
37202;BME280;37799;52.390;6.136;2023-06-14T06:23:35;101742.59;;;24.24;47.63
37202;BME280;37799;52.390;6.136;2023-06-14T06:26:00;101746.13;;;24.50;47.88
37202;BME280;37799;52.390;6.136;2023-06-14T06:28:26;101747.78;;;25.00;44.83
37202;BME280;37799;52.390;6.136;2023-06-14T06:30:51;101741.81;;;25.22;44.16
37202;BME280;37799;52.390;6.136;2023-06-14T06:33:17;101752.69;;;24.93;44.45
37202;BME280;37799;52.390;6.136;2023-06-14T06:35:42;101749.78;;;24.73;44.24
37202;BME280;37799;52.390;6.136;2023-06-14T06:38:08;101758.22;;;25.03;44.75
37202;BME280;37799;52.390;6.136;2023-06-14T06:40:35;101762.06;;;24.74;43.51
37202;BME280;37799;52.390;6.136;2023-06-14T06:43:02;101766.28;;;24.89;44.48
37202;BME280;37799;52.390;6.136;2023-06-14T06:45:28;101768.00;;;25.26;41.88
37202;BME280;37799;52.390;6.136;2023-06-14T06:47:54;101768.22;;;25.47;42.35
37202;BME280;37799;52.390;6.136;2023-06-14T06:50:21;101772.91;;;25.92;42.77
37202;BME280;37799;52.390;6.136;2023-06-14T06:52:50;101778.19;;;25.92;40.08
37202;BME280;37799;52.390;6.136;2023-06-14T06:55:16;101773.00;;;26.48;38.29
37202;BME280;37799;52.390;6.136;2023-06-14T06:57:43;101781.56;;;26.40;37.99
37202;BME280;37799;52.390;6.136;2023-06-14T07:00:09;101779.81;;;26.16;37.74
37202;BME280;37799;52.390;6.136;2023-06-14T07:02:35;101767.69;;;26.48;38.92
37202;BME280;37799;52.390;6.136;2023-06-14T07:05:01;101777.38;;;26.71;38.04
37202;BME280;37799;52.390;6.136;2023-06-14T07:07:27;101779.59;;;26.31;37.09
37202;BME280;37799;52.390;6.136;2023-06-14T07:09:52;101787.38;;;26.67;38.34
37202;BME280;37799;52.390;6.136;2023-06-14T07:12:18;101776.78;;;27.33;36.50
37202;BME280;37799;52.390;6.136;2023-06-14T07:14:43;101778.13;;;27.59;36.41
37202;BME280;37799;52.390;6.136;2023-06-14T07:17:10;101783.41;;;27.50;35.60
37202;BME280;37799;52.390;6.136;2023-06-14T07:19:35;101789.66;;;27.17;35.28
37202;BME280;37799;52.390;6.136;2023-06-14T07:22:01;101791.03;;;27.43;36.47
37202;BME280;37799;52.390;6.136;2023-06-14T07:24:26;101786.97;;;27.92;33.85
37202;BME280;37799;52.390;6.136;2023-06-14T07:26:56;101801.09;;;27.28;34.37
37202;BME280;37799;52.390;6.136;2023-06-14T07:29:22;101796.41;;;26.98;35.19
37202;BME280;37799;52.390;6.136;2023-06-14T07:31:47;101806.81;;;27.24;34.75
37202;BME280;37799;52.390;6.136;2023-06-14T07:34:12;101796.31;;;27.66;34.97
37202;BME280;37799;52.390;6.136;2023-06-14T07:36:38;101809.31;;;27.80;34.42
37202;BME280;37799;52.390;6.136;2023-06-14T07:39:04;101812.13;;;28.41;33.48
37202;BME280;37799;52.390;6.136;2023-06-14T07:41:31;101795.59;;;28.77;32.88
37202;BME280;37799;52.390;6.136;2023-06-14T07:43:56;101809.13;;;28.34;32.18
37202;BME280;37799;52.390;6.136;2023-06-14T07:46:21;101802.78;;;27.73;32.17
37202;BME280;37799;52.390;6.136;2023-06-14T07:48:47;101804.28;;;27.86;33.19
37202;BME280;37799;52.390;6.136;2023-06-14T07:51:13;101804.25;;;28.18;33.52
37202;BME280;37799;52.390;6.136;2023-06-14T07:53:38;101802.03;;;28.44;31.83
37202;BME280;37799;52.390;6.136;2023-06-14T07:56:04;101816.19;;;28.75;31.89
37202;BME280;37799;52.390;6.136;2023-06-14T07:58:29;101811.56;;;28.77;31.79
37202;BME280;37799;52.390;6.136;2023-06-14T08:00:54;101817.88;;;28.76;31.41
37202;BME280;37799;52.390;6.136;2023-06-14T08:03:20;101814.72;;;28.31;31.39
37202;BME280;37799;52.390;6.136;2023-06-14T08:05:47;101805.28;;;28.48;32.12
37202;BME280;37799;52.390;6.136;2023-06-14T08:08:13;101815.84;;;28.59;31.78
37202;BME280;37799;52.390;6.136;2023-06-14T08:10:38;101813.13;;;28.49;32.20
37202;BME280;37799;52.390;6.136;2023-06-14T08:13:03;101818.44;;;28.70;32.87
37202;BME280;37799;52.390;6.136;2023-06-14T08:15:29;101814.84;;;29.21;32.39
37202;BME280;37799;52.390;6.136;2023-06-14T08:17:54;101816.47;;;29.72;31.17
37202;BME280;37799;52.390;6.136;2023-06-14T08:20:20;101815.47;;;29.92;29.80
37202;BME280;37799;52.390;6.136;2023-06-14T08:22:45;101815.34;;;30.13;30.70
37202;BME280;37799;52.390;6.136;2023-06-14T08:25:13;101808.44;;;30.58;30.84
37202;BME280;37799;52.390;6.136;2023-06-14T08:27:38;101810.13;;;29.54;29.96
37202;BME280;37799;52.390;6.136;2023-06-14T08:30:04;101816.16;;;29.94;30.98
37202;BME280;37799;52.390;6.136;2023-06-14T08:32:29;101806.78;;;30.10;30.08
37202;BME280;37799;52.390;6.136;2023-06-14T08:34:55;101810.69;;;29.48;30.31
37202;BME280;37799;52.390;6.136;2023-06-14T08:37:20;101809.59;;;29.60;31.19
37202;BME280;37799;52.390;6.136;2023-06-14T08:39:46;101799.03;;;29.49;30.02
37202;BME280;37799;52.390;6.136;2023-06-14T08:42:12;101806.53;;;28.74;30.65
37202;BME280;37799;52.390;6.136;2023-06-14T08:44:39;101805.84;;;29.22;31.79
37202;BME280;37799;52.390;6.136;2023-06-14T08:47:06;101801.84;;;28.15;31.86
37202;BME280;37799;52.390;6.136;2023-06-14T08:49:32;101795.91;;;28.12;32.28
37202;BME280;37799;52.390;6.136;2023-06-14T08:52:00;101801.72;;;28.38;31.28
37202;BME280;37799;52.390;6.136;2023-06-14T08:54:29;101799.66;;;28.41;30.79
37202;BME280;37799;52.390;6.136;2023-06-14T08:57:01;101805.56;;;29.25;30.91
37202;BME280;37799;52.390;6.136;2023-06-14T08:59:27;101807.34;;;29.65;29.55
37202;BME280;37799;52.390;6.136;2023-06-14T09:01:53;101807.84;;;30.36;29.13
37202;BME280;37799;52.390;6.136;2023-06-14T09:04:22;101808.00;;;30.25;28.48
37202;BME280;37799;52.390;6.136;2023-06-14T09:06:49;101803.72;;;30.42;28.39
37202;BME280;37799;52.390;6.136;2023-06-14T09:09:20;101808.16;;;30.14;28.51
37202;BME280;37799;52.390;6.136;2023-06-14T09:11:46;101810.94;;;30.32;28.51
37202;BME280;37799;52.390;6.136;2023-06-14T09:14:11;101804.13;;;30.47;28.26
37202;BME280;37799;52.390;6.136;2023-06-14T09:16:36;101812.81;;;30.59;27.33
37202;BME280;37799;52.390;6.136;2023-06-14T09:19:01;101816.31;;;30.96;27.67
37202;BME280;37799;52.390;6.136;2023-06-14T09:21:27;101816.53;;;30.85;26.66
37202;BME280;37799;52.390;6.136;2023-06-14T09:23:53;101815.19;;;30.24;27.13
37202;BME280;37799;52.390;6.136;2023-06-14T09:26:19;101803.66;;;30.24;27.83
37202;BME280;37799;52.390;6.136;2023-06-14T09:28:48;101808.81;;;29.19;27.82
37202;BME280;37799;52.390;6.136;2023-06-14T09:31:19;101802.19;;;29.14;28.24
37202;BME280;37799;52.390;6.136;2023-06-14T09:33:46;101798.28;;;29.18;29.01
37202;BME280;37799;52.390;6.136;2023-06-14T09:36:23;101799.44;;;29.92;28.06
37202;BME280;37799;52.390;6.136;2023-06-14T09:38:59;101793.28;;;29.82;26.78
37202;BME280;37799;52.390;6.136;2023-06-14T09:41:41;101801.06;;;29.16;27.82
37202;BME280;37799;52.390;6.136;2023-06-14T09:44:08;101806.69;;;29.13;28.03
37202;BME280;37799;52.390;6.136;2023-06-14T09:46:35;101792.03;;;29.48;26.82
37202;BME280;37799;52.390;6.136;2023-06-14T09:49:01;101795.94;;;29.44;26.82
37202;BME280;37799;52.390;6.136;2023-06-14T09:51:28;101795.53;;;29.67;27.24
37202;BME280;37799;52.390;6.136;2023-06-14T09:53:59;101798.03;;;30.08;27.57
37202;BME280;37799;52.390;6.136;2023-06-14T09:56:27;101798.75;;;30.66;27.17
37202;BME280;37799;52.390;6.136;2023-06-14T09:58:56;101800.88;;;30.53;26.43
37202;BME280;37799;52.390;6.136;2023-06-14T10:01:27;101800.22;;;30.41;27.39
37202;BME280;37799;52.390;6.136;2023-06-14T10:04:05;101786.47;;;30.27;25.29
37202;BME280;37799;52.390;6.136;2023-06-14T10:06:31;101798.63;;;29.82;25.96
37202;BME280;37799;52.390;6.136;2023-06-14T10:08:58;101797.09;;;28.91;27.26
37202;BME280;37799;52.390;6.136;2023-06-14T10:11:27;101802.50;;;29.20;29.23
37202;BME280;37799;52.390;6.136;2023-06-14T10:13:54;101808.09;;;29.17;28.23
37202;BME280;37799;52.390;6.136;2023-06-14T10:16:25;101825.88;;;29.57;28.08
37202;BME280;37799;52.390;6.136;2023-06-14T10:19:04;101817.06;;;29.16;27.92
37202;BME280;37799;52.390;6.136;2023-06-14T10:21:59;101801.31;;;29.82;27.01
37202;BME280;37799;52.390;6.136;2023-06-14T10:24:33;101797.75;;;29.91;26.40
37202;BME280;37799;52.390;6.136;2023-06-14T10:27:00;101802.25;;;30.01;27.48
37202;BME280;37799;52.390;6.136;2023-06-14T10:29:27;101809.56;;;29.79;26.73
37202;BME280;37799;52.390;6.136;2023-06-14T10:31:58;101807.88;;;29.88;27.02
37202;BME280;37799;52.390;6.136;2023-06-14T10:34:28;101805.91;;;29.90;26.04
37202;BME280;37799;52.390;6.136;2023-06-14T10:37:02;101806.47;;;30.13;26.67
37202;BME280;37799;52.390;6.136;2023-06-14T10:39:28;101817.09;;;29.26;26.35
37202;BME280;37799;52.390;6.136;2023-06-14T10:41:55;101807.09;;;29.08;26.14
37202;BME280;37799;52.390;6.136;2023-06-14T10:46:52;101810.69;;;29.77;26.52
37202;BME280;37799;52.390;6.136;2023-06-14T10:52:04;101794.69;;;29.48;26.61
37202;BME280;37799;52.390;6.136;2023-06-14T10:54:31;101804.38;;;29.68;26.83
37202;BME280;37799;52.390;6.136;2023-06-14T10:56:58;101797.69;;;29.14;26.71
37202;BME280;37799;52.390;6.136;2023-06-14T10:59:25;101805.59;;;29.35;27.91
37202;BME280;37799;52.390;6.136;2023-06-14T11:02:34;101797.50;;;29.85;26.56
37202;BME280;37799;52.390;6.136;2023-06-14T11:05:08;101793.97;;;29.65;25.85
37202;BME280;37799;52.390;6.136;2023-06-14T11:12:55;101785.41;;;30.10;27.16
37202;BME280;37799;52.390;6.136;2023-06-14T11:15:28;101785.78;;;30.24;25.42
37202;BME280;37799;52.390;6.136;2023-06-14T11:17:53;101787.38;;;30.54;26.04
37202;BME280;37799;52.390;6.136;2023-06-14T11:20:19;101786.78;;;30.14;26.06
37202;BME280;37799;52.390;6.136;2023-06-14T11:22:45;101797.31;;;30.25;25.55
37202;BME280;37799;52.390;6.136;2023-06-14T11:25:14;101796.38;;;30.53;25.53
37202;BME280;37799;52.390;6.136;2023-06-14T11:27:42;101798.53;;;30.40;24.96
37202;BME280;37799;52.390;6.136;2023-06-14T11:30:08;101793.53;;;29.99;25.06
37202;BME280;37799;52.390;6.136;2023-06-14T11:32:37;101801.97;;;29.46;26.23
37202;BME280;37799;52.390;6.136;2023-06-14T11:35:04;101778.13;;;29.73;26.03
37202;BME280;37799;52.390;6.136;2023-06-14T11:37:33;101787.06;;;29.33;25.79
37202;BME280;37799;52.390;6.136;2023-06-14T11:39:59;101780.38;;;29.49;27.09
37202;BME280;37799;52.390;6.136;2023-06-14T11:42:28;101773.66;;;30.40;26.95
37202;BME280;37799;52.390;6.136;2023-06-14T11:44:54;101780.72;;;31.23;25.88
37202;BME280;37799;52.390;6.136;2023-06-14T11:47:20;101784.69;;;30.54;24.41
37202;BME280;37799;52.390;6.136;2023-06-14T11:49:46;101777.09;;;30.13;25.58
37202;BME280;37799;52.390;6.136;2023-06-14T11:52:12;101796.66;;;29.84;26.46
37202;BME280;37799;52.390;6.136;2023-06-14T11:54:37;101782.28;;;29.27;25.91
37202;BME280;37799;52.390;6.136;2023-06-14T11:57:06;101783.66;;;29.12;26.84
37202;BME280;37799;52.390;6.136;2023-06-14T11:59:32;101789.28;;;29.28;26.88
37202;BME280;37799;52.390;6.136;2023-06-14T12:01:57;101786.78;;;30.14;26.29
37202;BME280;37799;52.390;6.136;2023-06-14T12:04:26;101787.88;;;30.77;26.22
37202;BME280;37799;52.390;6.136;2023-06-14T12:06:52;101783.31;;;30.50;25.50
37202;BME280;37799;52.390;6.136;2023-06-14T12:09:20;101783.41;;;30.59;26.34
37202;BME280;37799;52.390;6.136;2023-06-14T12:11:49;101774.09;;;30.35;25.74
37202;BME280;37799;52.390;6.136;2023-06-14T12:14:14;101773.81;;;30.75;25.89
37202;BME280;37799;52.390;6.136;2023-06-14T12:16:40;101782.19;;;31.08;25.98
37202;BME280;37799;52.390;6.136;2023-06-14T12:19:14;101787.22;;;30.66;25.84
37202;BME280;37799;52.390;6.136;2023-06-14T12:21:40;101780.63;;;29.65;26.04
37202;BME280;37799;52.390;6.136;2023-06-14T12:24:07;101772.44;;;30.15;27.66
37202;BME280;37799;52.390;6.136;2023-06-14T12:26:37;101770.66;;;30.43;25.89
37202;BME280;37799;52.390;6.136;2023-06-14T12:29:05;101791.00;;;30.26;25.08
37202;BME280;37799;52.390;6.136;2023-06-14T12:31:30;101784.56;;;30.00;24.49
37202;BME280;37799;52.390;6.136;2023-06-14T12:33:56;101782.88;;;29.89;24.93
37202;BME280;37799;52.390;6.136;2023-06-14T12:36:21;101779.31;;;30.27;25.82
37202;BME280;37799;52.390;6.136;2023-06-14T12:38:47;101774.41;;;29.93;26.29
37202;BME280;37799;52.390;6.136;2023-06-14T12:41:13;101775.78;;;30.27;27.28
37202;BME280;37799;52.390;6.136;2023-06-14T12:43:39;101771.88;;;30.02;26.56
37202;BME280;37799;52.390;6.136;2023-06-14T12:46:07;101775.00;;;29.87;26.55
37202;BME280;37799;52.390;6.136;2023-06-14T12:48:32;101774.34;;;30.32;27.44
37202;BME280;37799;52.390;6.136;2023-06-14T12:51:00;101771.78;;;30.87;26.41
37202;BME280;37799;52.390;6.136;2023-06-14T12:53:26;101776.78;;;31.18;24.73
37202;BME280;37799;52.390;6.136;2023-06-14T12:55:51;101784.34;;;31.04;24.53
37202;BME280;37799;52.390;6.136;2023-06-14T12:58:17;101778.88;;;30.96;23.42